sensor_id;sensor_type;location;lat;lon;timestamp;P1;durP1;ratioP1;P2;durP2;ratioP2
6243;SDS011;3155;49.940;8.450;2023-12-20T00:00:09;4.45;;;3.35;;
6243;SDS011;3155;49.940;8.450;2023-12-20T00:02:37;3.90;;;3.00;;
6243;SDS011;3155;49.940;8.450;2023-12-20T00:05:07;3.70;;;3.20;;
6243;SDS011;3155;49.940;8.450;2023-12-20T00:07:37;4.75;;;2.88;;
6243;SDS011;3155;49.940;8.450;2023-12-20T00:10:04;3.40;;;3.10;;
6243;SDS011;3155;49.940;8.450;2023-12-20T00:12:34;3.80;;;3.50;;
6243;SDS011;3155;49.940;8.450;2023-12-20T00:15:01;3.88;;;3.47;;
6243;SDS011;3155;49.940;8.450;2023-12-20T00:17:28;3.58;;;3.28;;
6243;SDS011;3155;49.940;8.450;2023-12-20T00:19:58;3.87;;;3.47;;
6243;SDS011;3155;49.940;8.450;2023-12-20T00:22:25;4.63;;;3.13;;
6243;SDS011;3155;49.940;8.450;2023-12-20T00:24:55;2.95;;;2.70;;
6243;SDS011;3155;49.940;8.450;2023-12-20T00:27:22;3.67;;;3.25;;
6243;SDS011;3155;49.940;8.450;2023-12-20T00:29:49;4.35;;;3.13;;
6243;SDS011;3155;49.940;8.450;2023-12-20T00:32:17;3.45;;;2.97;;
6243;SDS011;3155;49.940;8.450;2023-12-20T00:34:49;3.65;;;2.92;;
6243;SDS011;3155;49.940;8.450;2023-12-20T00:37:17;3.15;;;2.92;;
6243;SDS011;3155;49.940;8.450;2023-12-20T00:39:44;3.17;;;2.78;;
6243;SDS011;3155;49.940;8.450;2023-12-20T00:42:13;2.88;;;2.63;;
6243;SDS011;3155;49.940;8.450;2023-12-20T00:44:43;2.88;;;2.67;;
6243;SDS011;3155;49.940;8.450;2023-12-20T00:47:10;2.70;;;2.50;;
6243;SDS011;3155;49.940;8.450;2023-12-20T00:49:38;2.60;;;2.40;;
6243;SDS011;3155;49.940;8.450;2023-12-20T00:52:11;2.85;;;2.65;;
6243;SDS011;3155;49.940;8.450;2023-12-20T00:54:38;2.47;;;2.30;;
6243;SDS011;3155;49.940;8.450;2023-12-20T00:57:05;2.50;;;2.30;;
6243;SDS011;3155;49.940;8.450;2023-12-20T00:59:32;2.20;;;2.10;;
6243;SDS011;3155;49.940;8.450;2023-12-20T01:01:59;2.00;;;1.90;;
6243;SDS011;3155;49.940;8.450;2023-12-20T01:04:27;2.05;;;1.95;;
6243;SDS011;3155;49.940;8.450;2023-12-20T01:06:54;2.35;;;2.15;;
6243;SDS011;3155;49.940;8.450;2023-12-20T01:09:22;3.33;;;2.20;;
6243;SDS011;3155;49.940;8.450;2023-12-20T01:11:52;2.20;;;2.00;;
6243;SDS011;3155;49.940;8.450;2023-12-20T01:14:20;2.40;;;2.20;;
6243;SDS011;3155;49.940;8.450;2023-12-20T01:16:47;2.03;;;1.92;;
6243;SDS011;3155;49.940;8.450;2023-12-20T01:19:16;2.30;;;2.10;;
6243;SDS011;3155;49.940;8.450;2023-12-20T01:21:44;2.30;;;2.10;;
6243;SDS011;3155;49.940;8.450;2023-12-20T01:24:14;2.05;;;1.88;;
6243;SDS011;3155;49.940;8.450;2023-12-20T01:26:41;1.90;;;1.80;;
6243;SDS011;3155;49.940;8.450;2023-12-20T01:29:08;2.00;;;1.90;;
6243;SDS011;3155;49.940;8.450;2023-12-20T01:31:35;1.92;;;1.83;;
6243;SDS011;3155;49.940;8.450;2023-12-20T01:34:02;1.70;;;1.60;;
6243;SDS011;3155;49.940;8.450;2023-12-20T01:36:30;1.80;;;1.70;;
6243;SDS011;3155;49.940;8.450;2023-12-20T01:38:57;1.80;;;1.70;;
6243;SDS011;3155;49.940;8.450;2023-12-20T01:41:24;2.10;;;1.98;;
6243;SDS011;3155;49.940;8.450;2023-12-20T01:43:51;1.90;;;1.80;;
6243;SDS011;3155;49.940;8.450;2023-12-20T01:46:19;2.03;;;1.92;;
6243;SDS011;3155;49.940;8.450;2023-12-20T01:48:50;2.25;;;2.15;;
6243;SDS011;3155;49.940;8.450;2023-12-20T01:51:18;2.53;;;2.30;;
6243;SDS011;3155;49.940;8.450;2023-12-20T01:53:46;2.15;;;2.05;;
6243;SDS011;3155;49.940;8.450;2023-12-20T01:56:13;2.22;;;2.00;;
6243;SDS011;3155;49.940;8.450;2023-12-20T01:58:44;2.35;;;2.17;;
6243;SDS011;3155;49.940;8.450;2023-12-20T02:01:12;2.30;;;2.10;;
6243;SDS011;3155;49.940;8.450;2023-12-20T02:03:42;2.13;;;2.03;;
6243;SDS011;3155;49.940;8.450;2023-12-20T02:06:09;2.00;;;1.90;;
6243;SDS011;3155;49.940;8.450;2023-12-20T02:08:37;2.40;;;2.20;;
6243;SDS011;3155;49.940;8.450;2023-12-20T02:11:04;2.50;;;2.30;;
6243;SDS011;3155;49.940;8.450;2023-12-20T02:13:31;2.20;;;2.10;;
6243;SDS011;3155;49.940;8.450;2023-12-20T02:16:00;2.55;;;2.35;;
6243;SDS011;3155;49.940;8.450;2023-12-20T02:18:27;3.08;;;2.78;;
6243;SDS011;3155;49.940;8.450;2023-12-20T02:20:55;2.40;;;2.30;;
6243;SDS011;3155;49.940;8.450;2023-12-20T02:23:22;2.90;;;2.67;;
6243;SDS011;3155;49.940;8.450;2023-12-20T02:25:49;2.50;;;2.30;;
6243;SDS011;3155;49.940;8.450;2023-12-20T02:28:19;2.70;;;2.30;;
6243;SDS011;3155;49.940;8.450;2023-12-20T02:30:47;2.50;;;2.30;;
6243;SDS011;3155;49.940;8.450;2023-12-20T02:33:15;2.40;;;2.20;;
6243;SDS011;3155;49.940;8.450;2023-12-20T02:35:43;2.50;;;2.40;;
6243;SDS011;3155;49.940;8.450;2023-12-20T02:38:10;2.38;;;2.28;;
6243;SDS011;3155;49.940;8.450;2023-12-20T02:40:37;2.10;;;2.00;;
6243;SDS011;3155;49.940;8.450;2023-12-20T02:43:05;2.20;;;2.10;;
6243;SDS011;3155;49.940;8.450;2023-12-20T02:45:32;2.30;;;2.05;;
6243;SDS011;3155;49.940;8.450;2023-12-20T02:47:59;2.40;;;2.20;;
6243;SDS011;3155;49.940;8.450;2023-12-20T02:50:27;2.40;;;2.20;;
6243;SDS011;3155;49.940;8.450;2023-12-20T02:52:54;2.15;;;2.05;;
6243;SDS011;3155;49.940;8.450;2023-12-20T02:55:21;2.35;;;1.92;;
6243;SDS011;3155;49.940;8.450;2023-12-20T02:57:48;2.10;;;1.98;;
6243;SDS011;3155;49.940;8.450;2023-12-20T03:00:16;2.22;;;2.13;;
6243;SDS011;3155;49.940;8.450;2023-12-20T03:02:45;4.00;;;1.92;;
6243;SDS011;3155;49.940;8.450;2023-12-20T03:05:12;1.95;;;1.85;;
6243;SDS011;3155;49.940;8.450;2023-12-20T03:07:46;2.03;;;1.92;;
6243;SDS011;3155;49.940;8.450;2023-12-20T03:10:14;1.83;;;1.77;;
6243;SDS011;3155;49.940;8.450;2023-12-20T03:12:51;2.00;;;1.90;;
6243;SDS011;3155;49.940;8.450;2023-12-20T03:15:19;1.98;;;1.88;;
6243;SDS011;3155;49.940;8.450;2023-12-20T03:17:46;1.90;;;1.80;;
6243;SDS011;3155;49.940;8.450;2023-12-20T03:20:14;1.80;;;1.70;;
6243;SDS011;3155;49.940;8.450;2023-12-20T03:22:41;2.10;;;1.90;;
6243;SDS011;3155;49.940;8.450;2023-12-20T03:25:15;1.57;;;1.57;;
6243;SDS011;3155;49.940;8.450;2023-12-20T03:27:43;2.22;;;2.08;;
6243;SDS011;3155;49.940;8.450;2023-12-20T03:30:10;1.90;;;1.80;;
6243;SDS011;3155;49.940;8.450;2023-12-20T03:32:40;2.20;;;2.10;;
6243;SDS011;3155;49.940;8.450;2023-12-20T03:35:08;2.55;;;1.98;;
6243;SDS011;3155;49.940;8.450;2023-12-20T03:37:35;1.90;;;1.80;;
6243;SDS011;3155;49.940;8.450;2023-12-20T03:40:03;1.80;;;1.70;;
6243;SDS011;3155;49.940;8.450;2023-12-20T03:42:36;1.70;;;1.60;;
6243;SDS011;3155;49.940;8.450;2023-12-20T03:45:03;1.70;;;1.60;;
6243;SDS011;3155;49.940;8.450;2023-12-20T03:47:31;1.58;;;1.48;;
6243;SDS011;3155;49.940;8.450;2023-12-20T03:49:58;1.50;;;1.40;;
6243;SDS011;3155;49.940;8.450;2023-12-20T03:52:25;1.90;;;1.53;;
6243;SDS011;3155;49.940;8.450;2023-12-20T03:54:52;1.65;;;1.60;;
6243;SDS011;3155;49.940;8.450;2023-12-20T03:57:20;1.85;;;1.75;;
6243;SDS011;3155;49.940;8.450;2023-12-20T03:59:47;1.80;;;1.70;;
6243;SDS011;3155;49.940;8.450;2023-12-20T04:02:14;2.10;;;2.00;;
6243;SDS011;3155;49.940;8.450;2023-12-20T04:04:41;1.90;;;1.80;;
6243;SDS011;3155;49.940;8.450;2023-12-20T04:07:09;2.00;;;1.90;;
6243;SDS011;3155;49.940;8.450;2023-12-20T04:09:40;1.95;;;1.85;;
6243;SDS011;3155;49.940;8.450;2023-12-20T04:12:07;1.60;;;1.50;;
6243;SDS011;3155;49.940;8.450;2023-12-20T04:14:35;1.55;;;1.55;;
6243;SDS011;3155;49.940;8.450;2023-12-20T04:17:04;1.60;;;1.50;;
6243;SDS011;3155;49.940;8.450;2023-12-20T04:19:31;1.70;;;1.60;;
6243;SDS011;3155;49.940;8.450;2023-12-20T04:21:58;1.35;;;1.30;;
6243;SDS011;3155;49.940;8.450;2023-12-20T04:24:26;1.52;;;1.42;;
6243;SDS011;3155;49.940;8.450;2023-12-20T04:26:53;1.50;;;1.40;;
6243;SDS011;3155;49.940;8.450;2023-12-20T04:29:20;1.42;;;1.38;;
6243;SDS011;3155;49.940;8.450;2023-12-20T04:31:50;1.38;;;1.38;;
6243;SDS011;3155;49.940;8.450;2023-12-20T04:34:20;1.30;;;1.30;;
6243;SDS011;3155;49.940;8.450;2023-12-20T04:36:50;1.10;;;1.10;;
6243;SDS011;3155;49.940;8.450;2023-12-20T04:39:17;1.23;;;1.20;;
6243;SDS011;3155;49.940;8.450;2023-12-20T04:41:44;1.00;;;1.00;;
6243;SDS011;3155;49.940;8.450;2023-12-20T04:44:13;0.98;;;0.90;;
6243;SDS011;3155;49.940;8.450;2023-12-20T04:46:41;0.88;;;0.88;;
6243;SDS011;3155;49.940;8.450;2023-12-20T04:49:11;0.82;;;0.82;;
6243;SDS011;3155;49.940;8.450;2023-12-20T04:51:38;1.00;;;1.00;;
6243;SDS011;3155;49.940;8.450;2023-12-20T04:54:05;1.10;;;1.10;;
6243;SDS011;3155;49.940;8.450;2023-12-20T04:56:33;1.30;;;1.25;;
6243;SDS011;3155;49.940;8.450;2023-12-20T04:59:00;1.20;;;1.20;;
6243;SDS011;3155;49.940;8.450;2023-12-20T05:01:29;1.40;;;1.30;;
6243;SDS011;3155;49.940;8.450;2023-12-20T05:03:57;1.10;;;1.10;;
6243;SDS011;3155;49.940;8.450;2023-12-20T05:06:24;1.30;;;1.20;;
6243;SDS011;3155;49.940;8.450;2023-12-20T05:08:51;1.30;;;1.30;;
6243;SDS011;3155;49.940;8.450;2023-12-20T05:11:18;1.48;;;1.40;;
6243;SDS011;3155;49.940;8.450;2023-12-20T05:13:45;1.30;;;1.20;;
6243;SDS011;3155;49.940;8.450;2023-12-20T05:16:16;1.38;;;1.33;;
6243;SDS011;3155;49.940;8.450;2023-12-20T05:18:45;1.20;;;1.20;;
6243;SDS011;3155;49.940;8.450;2023-12-20T05:21:12;2.00;;;1.55;;
6243;SDS011;3155;49.940;8.450;2023-12-20T05:23:39;4.60;;;1.77;;
6243;SDS011;3155;49.940;8.450;2023-12-20T05:26:06;3.35;;;1.20;;
6243;SDS011;3155;49.940;8.450;2023-12-20T05:28:34;1.30;;;1.20;;
6243;SDS011;3155;49.940;8.450;2023-12-20T05:31:01;1.55;;;1.20;;
6243;SDS011;3155;49.940;8.450;2023-12-20T05:33:29;3.53;;;1.27;;
6243;SDS011;3155;49.940;8.450;2023-12-20T05:35:59;3.75;;;1.27;;
6243;SDS011;3155;49.940;8.450;2023-12-20T05:38:29;1.90;;;1.40;;
6243;SDS011;3155;49.940;8.450;2023-12-20T05:40:59;2.60;;;1.50;;
6243;SDS011;3155;49.940;8.450;2023-12-20T05:43:26;3.38;;;1.00;;
6243;SDS011;3155;49.940;8.450;2023-12-20T05:45:53;4.22;;;1.70;;
6243;SDS011;3155;49.940;8.450;2023-12-20T05:48:20;3.20;;;1.30;;
6243;SDS011;3155;49.940;8.450;2023-12-20T05:50:48;4.97;;;1.73;;
6243;SDS011;3155;49.940;8.450;2023-12-20T05:53:15;3.53;;;1.20;;
6243;SDS011;3155;49.940;8.450;2023-12-20T05:55:42;2.55;;;1.70;;
6243;SDS011;3155;49.940;8.450;2023-12-20T05:58:09;4.00;;;1.80;;
6243;SDS011;3155;49.940;8.450;2023-12-20T06:00:37;1.98;;;1.38;;
6243;SDS011;3155;49.940;8.450;2023-12-20T06:03:04;3.17;;;1.40;;
6243;SDS011;3155;49.940;8.450;2023-12-20T06:05:31;4.05;;;1.20;;
6243;SDS011;3155;49.940;8.450;2023-12-20T06:07:58;3.88;;;1.20;;
6243;SDS011;3155;49.940;8.450;2023-12-20T06:10:29;2.60;;;1.37;;
6243;SDS011;3155;49.940;8.450;2023-12-20T06:12:56;2.90;;;1.35;;
6243;SDS011;3155;49.940;8.450;2023-12-20T06:15:25;3.20;;;1.10;;
6243;SDS011;3155;49.940;8.450;2023-12-20T06:17:52;3.28;;;1.30;;
6243;SDS011;3155;49.940;8.450;2023-12-20T06:20:19;2.45;;;1.67;;
6243;SDS011;3155;49.940;8.450;2023-12-20T06:22:47;2.63;;;1.20;;
6243;SDS011;3155;49.940;8.450;2023-12-20T06:25:14;5.78;;;1.67;;
6243;SDS011;3155;49.940;8.450;2023-12-20T06:27:41;3.75;;;1.25;;
6243;SDS011;3155;49.940;8.450;2023-12-20T06:30:09;2.60;;;1.45;;
6243;SDS011;3155;49.940;8.450;2023-12-20T06:32:37;3.15;;;1.33;;
6243;SDS011;3155;49.940;8.450;2023-12-20T06:35:05;1.80;;;1.33;;
6243;SDS011;3155;49.940;8.450;2023-12-20T06:37:33;3.17;;;1.58;;
6243;SDS011;3155;49.940;8.450;2023-12-20T06:40:00;1.40;;;1.25;;
6243;SDS011;3155;49.940;8.450;2023-12-20T06:42:28;2.63;;;1.40;;
6243;SDS011;3155;49.940;8.450;2023-12-20T06:45:00;1.52;;;1.20;;
6243;SDS011;3155;49.940;8.450;2023-12-20T06:47:27;3.40;;;1.60;;
6243;SDS011;3155;49.940;8.450;2023-12-20T06:49:54;1.80;;;1.20;;
6243;SDS011;3155;49.940;8.450;2023-12-20T06:52:25;4.28;;;1.40;;
6243;SDS011;3155;49.940;8.450;2023-12-20T06:54:52;2.35;;;1.30;;
6243;SDS011;3155;49.940;8.450;2023-12-20T06:57:19;2.65;;;1.63;;
6243;SDS011;3155;49.940;8.450;2023-12-20T06:59:51;4.13;;;1.70;;
6243;SDS011;3155;49.940;8.450;2023-12-20T07:02:27;6.03;;;2.05;;
6243;SDS011;3155;49.940;8.450;2023-12-20T07:04:56;4.60;;;1.80;;
6243;SDS011;3155;49.940;8.450;2023-12-20T07:07:23;5.17;;;2.17;;
6243;SDS011;3155;49.940;8.450;2023-12-20T07:09:53;4.05;;;1.80;;
6243;SDS011;3155;49.940;8.450;2023-12-20T07:12:21;3.70;;;1.70;;
6243;SDS011;3155;49.940;8.450;2023-12-20T07:14:48;3.60;;;2.08;;
6243;SDS011;3155;49.940;8.450;2023-12-20T07:17:15;5.00;;;2.20;;
6243;SDS011;3155;49.940;8.450;2023-12-20T07:19:42;5.13;;;2.00;;
6243;SDS011;3155;49.940;8.450;2023-12-20T07:22:09;4.63;;;1.80;;
6243;SDS011;3155;49.940;8.450;2023-12-20T07:24:36;5.55;;;1.98;;
6243;SDS011;3155;49.940;8.450;2023-12-20T07:27:04;4.60;;;1.85;;
6243;SDS011;3155;49.940;8.450;2023-12-20T07:29:31;4.78;;;2.08;;
6243;SDS011;3155;49.940;8.450;2023-12-20T07:31:58;3.75;;;2.10;;
6243;SDS011;3155;49.940;8.450;2023-12-20T07:34:25;3.88;;;1.77;;
6243;SDS011;3155;49.940;8.450;2023-12-20T07:36:52;2.70;;;1.80;;
6243;SDS011;3155;49.940;8.450;2023-12-20T07:39:20;1.88;;;1.55;;
6243;SDS011;3155;49.940;8.450;2023-12-20T07:41:47;3.58;;;1.70;;
6243;SDS011;3155;49.940;8.450;2023-12-20T07:44:14;4.65;;;1.88;;
6243;SDS011;3155;49.940;8.450;2023-12-20T07:46:42;2.95;;;1.50;;
6243;SDS011;3155;49.940;8.450;2023-12-20T07:49:10;5.35;;;1.45;;
6243;SDS011;3155;49.940;8.450;2023-12-20T07:51:38;3.70;;;1.50;;
6243;SDS011;3155;49.940;8.450;2023-12-20T07:54:07;2.70;;;1.25;;
6243;SDS011;3155;49.940;8.450;2023-12-20T07:56:34;5.53;;;1.40;;
6243;SDS011;3155;49.940;8.450;2023-12-20T07:59:01;5.22;;;1.10;;
6243;SDS011;3155;49.940;8.450;2023-12-20T08:01:30;4.80;;;1.30;;
6243;SDS011;3155;49.940;8.450;2023-12-20T08:03:59;6.13;;;1.23;;
6243;SDS011;3155;49.940;8.450;2023-12-20T08:06:27;3.90;;;1.30;;
6243;SDS011;3155;49.940;8.450;2023-12-20T08:08:54;6.95;;;1.00;;
6243;SDS011;3155;49.940;8.450;2023-12-20T08:11:31;4.47;;;1.30;;
6243;SDS011;3155;49.940;8.450;2023-12-20T08:13:59;5.82;;;1.55;;
6243;SDS011;3155;49.940;8.450;2023-12-20T08:16:26;2.25;;;1.25;;
6243;SDS011;3155;49.940;8.450;2023-12-20T08:18:57;3.92;;;1.50;;
6243;SDS011;3155;49.940;8.450;2023-12-20T08:21:24;4.40;;;1.20;;
6243;SDS011;3155;49.940;8.450;2023-12-20T08:23:51;4.43;;;0.93;;
6243;SDS011;3155;49.940;8.450;2023-12-20T08:26:19;3.45;;;0.93;;
6243;SDS011;3155;49.940;8.450;2023-12-20T08:28:47;4.07;;;1.20;;
6243;SDS011;3155;49.940;8.450;2023-12-20T08:31:15;3.88;;;1.38;;
6243;SDS011;3155;49.940;8.450;2023-12-20T08:33:44;3.37;;;1.30;;
6243;SDS011;3155;49.940;8.450;2023-12-20T08:36:11;3.33;;;1.00;;
6243;SDS011;3155;49.940;8.450;2023-12-20T08:38:39;3.67;;;1.30;;
6243;SDS011;3155;49.940;8.450;2023-12-20T08:41:06;4.28;;;1.10;;
6243;SDS011;3155;49.940;8.450;2023-12-20T08:43:35;4.20;;;1.20;;
6243;SDS011;3155;49.940;8.450;2023-12-20T08:46:03;4.38;;;1.05;;
6243;SDS011;3155;49.940;8.450;2023-12-20T08:48:32;3.17;;;1.08;;
6243;SDS011;3155;49.940;8.450;2023-12-20T08:50:59;5.07;;;1.20;;
6243;SDS011;3155;49.940;8.450;2023-12-20T08:53:27;4.10;;;1.30;;
6243;SDS011;3155;49.940;8.450;2023-12-20T08:55:54;5.60;;;1.10;;
6243;SDS011;3155;49.940;8.450;2023-12-20T08:58:24;3.63;;;1.10;;
6243;SDS011;3155;49.940;8.450;2023-12-20T09:00:51;5.40;;;1.30;;
6243;SDS011;3155;49.940;8.450;2023-12-20T09:03:18;4.97;;;1.38;;
6243;SDS011;3155;49.940;8.450;2023-12-20T09:05:46;3.88;;;1.10;;
6243;SDS011;3155;49.940;8.450;2023-12-20T09:08:13;5.03;;;1.20;;
6243;SDS011;3155;49.940;8.450;2023-12-20T09:10:40;3.25;;;1.15;;
6243;SDS011;3155;49.940;8.450;2023-12-20T09:13:10;4.28;;;1.20;;
6243;SDS011;3155;49.940;8.450;2023-12-20T09:15:39;3.47;;;1.10;;
6243;SDS011;3155;49.940;8.450;2023-12-20T09:18:10;6.28;;;1.45;;
6243;SDS011;3155;49.940;8.450;2023-12-20T09:20:37;2.67;;;1.20;;
6243;SDS011;3155;49.940;8.450;2023-12-20T09:23:12;4.68;;;1.52;;
6243;SDS011;3155;49.940;8.450;2023-12-20T09:25:42;5.07;;;1.40;;
6243;SDS011;3155;49.940;8.450;2023-12-20T09:28:12;3.85;;;1.08;;
6243;SDS011;3155;49.940;8.450;2023-12-20T09:30:42;4.20;;;1.38;;
6243;SDS011;3155;49.940;8.450;2023-12-20T09:33:11;4.07;;;1.50;;
6243;SDS011;3155;49.940;8.450;2023-12-20T09:35:39;3.67;;;1.27;;
6243;SDS011;3155;49.940;8.450;2023-12-20T09:38:06;3.53;;;1.20;;
6243;SDS011;3155;49.940;8.450;2023-12-20T09:40:34;3.83;;;1.40;;
6243;SDS011;3155;49.940;8.450;2023-12-20T09:43:05;3.78;;;1.30;;
6243;SDS011;3155;49.940;8.450;2023-12-20T09:45:36;6.33;;;1.37;;
6243;SDS011;3155;49.940;8.450;2023-12-20T09:48:03;3.88;;;1.15;;
6243;SDS011;3155;49.940;8.450;2023-12-20T09:50:31;3.90;;;1.20;;
6243;SDS011;3155;49.940;8.450;2023-12-20T09:53:02;4.32;;;1.08;;
6243;SDS011;3155;49.940;8.450;2023-12-20T09:55:31;2.47;;;1.17;;
6243;SDS011;3155;49.940;8.450;2023-12-20T09:57:59;4.88;;;1.50;;
6243;SDS011;3155;49.940;8.450;2023-12-20T10:00:27;4.60;;;1.50;;
6243;SDS011;3155;49.940;8.450;2023-12-20T10:02:57;6.32;;;1.30;;
6243;SDS011;3155;49.940;8.450;2023-12-20T10:05:28;4.73;;;1.43;;
6243;SDS011;3155;49.940;8.450;2023-12-20T10:07:57;3.78;;;1.35;;
6243;SDS011;3155;49.940;8.450;2023-12-20T10:10:25;3.97;;;1.50;;
6243;SDS011;3155;49.940;8.450;2023-12-20T10:13:10;2.33;;;1.38;;
6243;SDS011;3155;49.940;8.450;2023-12-20T10:15:38;4.32;;;1.30;;
6243;SDS011;3155;49.940;8.450;2023-12-20T10:18:11;4.57;;;1.52;;
6243;SDS011;3155;49.940;8.450;2023-12-20T10:20:40;1.92;;;1.00;;
6243;SDS011;3155;49.940;8.450;2023-12-20T10:23:07;3.53;;;1.17;;
6243;SDS011;3155;49.940;8.450;2023-12-20T10:25:35;7.00;;;1.60;;
6243;SDS011;3155;49.940;8.450;2023-12-20T10:28:16;4.00;;;1.73;;
6243;SDS011;3155;49.940;8.450;2023-12-20T10:30:52;3.83;;;1.40;;
6243;SDS011;3155;49.940;8.450;2023-12-20T10:33:23;3.77;;;1.17;;
6243;SDS011;3155;49.940;8.450;2023-12-20T10:35:53;2.27;;;1.40;;
6243;SDS011;3155;49.940;8.450;2023-12-20T10:38:20;4.85;;;1.30;;
6243;SDS011;3155;49.940;8.450;2023-12-20T10:40:53;3.47;;;1.23;;
6243;SDS011;3155;49.940;8.450;2023-12-20T10:43:22;3.80;;;1.25;;
6243;SDS011;3155;49.940;8.450;2023-12-20T10:45:50;5.20;;;1.20;;
6243;SDS011;3155;49.940;8.450;2023-12-20T10:48:18;5.10;;;1.20;;
6243;SDS011;3155;49.940;8.450;2023-12-20T10:50:53;2.58;;;1.33;;
6243;SDS011;3155;49.940;8.450;2023-12-20T10:53:22;2.47;;;1.20;;
6243;SDS011;3155;49.940;8.450;2023-12-20T10:55:51;5.70;;;1.25;;
6243;SDS011;3155;49.940;8.450;2023-12-20T10:58:19;3.30;;;1.20;;
6243;SDS011;3155;49.940;8.450;2023-12-20T11:00:49;5.45;;;1.25;;
6243;SDS011;3155;49.940;8.450;2023-12-20T11:03:19;3.20;;;1.00;;
6243;SDS011;3155;49.940;8.450;2023-12-20T11:05:58;4.23;;;1.40;;
6243;SDS011;3155;49.940;8.450;2023-12-20T11:08:28;6.32;;;1.30;;
6243;SDS011;3155;49.940;8.450;2023-12-20T11:11:06;3.92;;;1.33;;
6243;SDS011;3155;49.940;8.450;2023-12-20T11:16:38;3.90;;;1.48;;
6243;SDS011;3155;49.940;8.450;2023-12-20T11:19:17;5.13;;;1.48;;
6243;SDS011;3155;49.940;8.450;2023-12-20T11:21:47;3.45;;;1.20;;
6243;SDS011;3155;49.940;8.450;2023-12-20T11:24:15;5.00;;;1.40;;
6243;SDS011;3155;49.940;8.450;2023-12-20T11:26:46;6.05;;;1.60;;
6243;SDS011;3155;49.940;8.450;2023-12-20T11:29:31;4.85;;;1.42;;
6243;SDS011;3155;49.940;8.450;2023-12-20T11:31:59;2.75;;;1.40;;
6243;SDS011;3155;49.940;8.450;2023-12-20T11:34:28;2.75;;;1.20;;
6243;SDS011;3155;49.940;8.450;2023-12-20T11:37:02;3.25;;;1.50;;
6243;SDS011;3155;49.940;8.450;2023-12-20T11:39:30;3.13;;;1.40;;
6243;SDS011;3155;49.940;8.450;2023-12-20T11:41:58;3.78;;;1.30;;
6243;SDS011;3155;49.940;8.450;2023-12-20T11:44:30;4.60;;;1.58;;
6243;SDS011;3155;49.940;8.450;2023-12-20T11:46:58;5.28;;;1.80;;
6243;SDS011;3155;49.940;8.450;2023-12-20T11:49:25;3.88;;;1.33;;
6243;SDS011;3155;49.940;8.450;2023-12-20T11:51:55;4.32;;;1.33;;
6243;SDS011;3155;49.940;8.450;2023-12-20T11:54:25;4.38;;;1.35;;
6243;SDS011;3155;49.940;8.450;2023-12-20T11:56:53;5.35;;;1.30;;
6243;SDS011;3155;49.940;8.450;2023-12-20T11:59:20;4.22;;;1.00;;
6243;SDS011;3155;49.940;8.450;2023-12-20T12:01:50;4.10;;;1.30;;
6243;SDS011;3155;49.940;8.450;2023-12-20T12:04:18;2.83;;;1.20;;
6243;SDS011;3155;49.940;8.450;2023-12-20T12:06:45;8.05;;;1.60;;
6243;SDS011;3155;49.940;8.450;2023-12-20T12:09:13;4.35;;;1.27;;
6243;SDS011;3155;49.940;8.450;2023-12-20T12:11:41;2.80;;;1.40;;
6243;SDS011;3155;49.940;8.450;2023-12-20T12:14:08;3.72;;;1.27;;
6243;SDS011;3155;49.940;8.450;2023-12-20T12:16:36;4.73;;;1.30;;
6243;SDS011;3155;49.940;8.450;2023-12-20T12:19:04;4.00;;;1.42;;
6243;SDS011;3155;49.940;8.450;2023-12-20T12:21:31;4.90;;;1.27;;
6243;SDS011;3155;49.940;8.450;2023-12-20T12:24:09;4.53;;;1.23;;
6243;SDS011;3155;49.940;8.450;2023-12-20T12:26:39;4.53;;;1.30;;
6243;SDS011;3155;49.940;8.450;2023-12-20T12:29:09;4.90;;;1.08;;
6243;SDS011;3155;49.940;8.450;2023-12-20T12:31:39;3.20;;;1.10;;
6243;SDS011;3155;49.940;8.450;2023-12-20T12:34:10;4.90;;;1.33;;
6243;SDS011;3155;49.940;8.450;2023-12-20T12:36:37;5.95;;;1.50;;
6243;SDS011;3155;49.940;8.450;2023-12-20T12:39:05;2.97;;;1.30;;
6243;SDS011;3155;49.940;8.450;2023-12-20T12:41:35;3.95;;;1.17;;
6243;SDS011;3155;49.940;8.450;2023-12-20T12:44:02;4.70;;;1.30;;
6243;SDS011;3155;49.940;8.450;2023-12-20T12:46:43;4.45;;;1.30;;
6243;SDS011;3155;49.940;8.450;2023-12-20T12:49:10;3.25;;;1.52;;
6243;SDS011;3155;49.940;8.450;2023-12-20T12:51:38;3.55;;;1.45;;
6243;SDS011;3155;49.940;8.450;2023-12-20T12:54:05;4.93;;;1.30;;
6243;SDS011;3155;49.940;8.450;2023-12-20T12:56:35;3.65;;;1.35;;
6243;SDS011;3155;49.940;8.450;2023-12-20T12:59:04;6.07;;;1.40;;
6243;SDS011;3155;49.940;8.450;2023-12-20T13:01:32;5.00;;;1.38;;
6243;SDS011;3155;49.940;8.450;2023-12-20T13:04:04;4.30;;;1.40;;
6243;SDS011;3155;49.940;8.450;2023-12-20T13:06:38;4.00;;;1.20;;
6243;SDS011;3155;49.940;8.450;2023-12-20T13:09:05;2.55;;;1.25;;
6243;SDS011;3155;49.940;8.450;2023-12-20T13:11:34;4.00;;;1.30;;
6243;SDS011;3155;49.940;8.450;2023-12-20T13:14:02;5.10;;;1.40;;
6243;SDS011;3155;49.940;8.450;2023-12-20T13:16:30;3.23;;;1.33;;
6243;SDS011;3155;49.940;8.450;2023-12-20T13:18:57;3.67;;;1.30;;
6243;SDS011;3155;49.940;8.450;2023-12-20T13:21:26;4.43;;;1.48;;
6243;SDS011;3155;49.940;8.450;2023-12-20T13:23:53;3.55;;;1.27;;
6243;SDS011;3155;49.940;8.450;2023-12-20T13:26:20;4.25;;;1.70;;
6243;SDS011;3155;49.940;8.450;2023-12-20T13:28:47;5.63;;;1.30;;
6243;SDS011;3155;49.940;8.450;2023-12-20T13:31:15;3.95;;;1.60;;
6243;SDS011;3155;49.940;8.450;2023-12-20T13:33:42;4.40;;;1.35;;
6243;SDS011;3155;49.940;8.450;2023-12-20T13:36:09;4.15;;;1.33;;
6243;SDS011;3155;49.940;8.450;2023-12-20T13:38:39;2.55;;;1.40;;
6243;SDS011;3155;49.940;8.450;2023-12-20T13:41:09;1.90;;;1.10;;
6243;SDS011;3155;49.940;8.450;2023-12-20T13:43:36;3.58;;;1.40;;
6243;SDS011;3155;49.940;8.450;2023-12-20T13:46:03;1.98;;;1.20;;
6243;SDS011;3155;49.940;8.450;2023-12-20T13:48:32;4.03;;;1.10;;
6243;SDS011;3155;49.940;8.450;2023-12-20T13:50:59;2.45;;;1.30;;
6243;SDS011;3155;49.940;8.450;2023-12-20T13:53:26;3.17;;;1.40;;
6243;SDS011;3155;49.940;8.450;2023-12-20T13:55:54;2.75;;;1.00;;
6243;SDS011;3155;49.940;8.450;2023-12-20T13:58:24;2.67;;;1.17;;
6243;SDS011;3155;49.940;8.450;2023-12-20T14:00:51;3.00;;;1.20;;
6243;SDS011;3155;49.940;8.450;2023-12-20T14:03:18;3.85;;;1.23;;
6243;SDS011;3155;49.940;8.450;2023-12-20T14:05:46;3.60;;;1.30;;
6243;SDS011;3155;49.940;8.450;2023-12-20T14:08:13;4.90;;;1.13;;
6243;SDS011;3155;49.940;8.450;2023-12-20T14:10:40;6.53;;;1.33;;
6243;SDS011;3155;49.940;8.450;2023-12-20T14:13:08;2.42;;;1.08;;
6243;SDS011;3155;49.940;8.450;2023-12-20T14:15:35;4.40;;;1.23;;
6243;SDS011;3155;49.940;8.450;2023-12-20T14:18:04;3.20;;;0.90;;
6243;SDS011;3155;49.940;8.450;2023-12-20T14:20:32;3.80;;;1.38;;
6243;SDS011;3155;49.940;8.450;2023-12-20T14:23:04;2.55;;;1.20;;
6243;SDS011;3155;49.940;8.450;2023-12-20T14:25:32;2.60;;;1.20;;
6243;SDS011;3155;49.940;8.450;2023-12-20T14:28:14;4.63;;;1.13;;
6243;SDS011;3155;49.940;8.450;2023-12-20T14:30:41;2.40;;;1.13;;
6243;SDS011;3155;49.940;8.450;2023-12-20T14:33:08;3.85;;;1.08;;
6243;SDS011;3155;49.940;8.450;2023-12-20T14:35:36;3.25;;;1.10;;
6243;SDS011;3155;49.940;8.450;2023-12-20T14:38:03;3.38;;;1.20;;
6243;SDS011;3155;49.940;8.450;2023-12-20T14:40:30;4.80;;;1.15;;
6243;SDS011;3155;49.940;8.450;2023-12-20T14:42:57;4.00;;;1.05;;
6243;SDS011;3155;49.940;8.450;2023-12-20T14:45:26;2.50;;;1.13;;
6243;SDS011;3155;49.940;8.450;2023-12-20T14:47:53;4.33;;;1.30;;
6243;SDS011;3155;49.940;8.450;2023-12-20T14:50:23;2.78;;;1.13;;
6243;SDS011;3155;49.940;8.450;2023-12-20T14:52:51;3.35;;;1.25;;
6243;SDS011;3155;49.940;8.450;2023-12-20T14:55:20;3.38;;;1.00;;
6243;SDS011;3155;49.940;8.450;2023-12-20T14:57:47;3.30;;;1.33;;
6243;SDS011;3155;49.940;8.450;2023-12-20T15:00:18;5.05;;;1.20;;
6243;SDS011;3155;49.940;8.450;2023-12-20T15:02:45;3.25;;;1.10;;
6243;SDS011;3155;49.940;8.450;2023-12-20T15:05:13;5.57;;;1.63;;
6243;SDS011;3155;49.940;8.450;2023-12-20T15:07:41;4.57;;;1.20;;
6243;SDS011;3155;49.940;8.450;2023-12-20T15:10:08;4.60;;;1.00;;
6243;SDS011;3155;49.940;8.450;2023-12-20T15:12:38;3.53;;;1.50;;
6243;SDS011;3155;49.940;8.450;2023-12-20T15:15:05;4.35;;;1.35;;
6243;SDS011;3155;49.940;8.450;2023-12-20T15:17:36;2.90;;;1.35;;
6243;SDS011;3155;49.940;8.450;2023-12-20T15:20:04;4.90;;;1.23;;
6243;SDS011;3155;49.940;8.450;2023-12-20T15:22:31;4.35;;;1.38;;
6243;SDS011;3155;49.940;8.450;2023-12-20T15:25:01;7.53;;;1.33;;